Time;durP1;ratioP1;P1;durP2;ratioP2;P2;SDS_P1;SDS_P2;PMS_P1;PMS_P2;Temp;Humidity;BMP_temperature;BMP_pressure;BME280_temperature;BME280_humidity;BME280_pressure;Samples;Min_cycle;Max_cycle;Signal;HPM_P1;HPM_P2
2022/11/05 00:10:03;;;;;;;;;28.75;26.25;;;;;-147.17;100.00;-15917.19;5012105;28;51296;-45
2022/11/05 00:17:56;;;;;;;;;18.00;18.00;;;;;-147.17;100.00;-15917.19;5008279;28;51146;-45
2022/11/05 00:20:22;;;;;;;;;17.75;16.75;;;;;-147.17;100.00;-15917.19;5012998;28;53535;-45
2022/11/05 00:25:38;;;;;;;;;15.25;14.75;;;;;-147.17;100.00;-15917.19;4982596;28;51305;-46
2022/11/05 00:28:03;;;;;;;;;22.25;15.25;;;;;-147.17;100.00;-15917.19;5011788;28;51293;-46
2022/11/05 00:30:29;;;;;;;;;19.25;19.25;;;;;-147.17;100.00;-15917.19;5010179;28;69238;-46
2022/11/05 00:33:01;;;;;;;;;17.00;15.50;;;;;-147.17;100.00;-15917.19;5013227;28;51067;-47
2022/11/05 00:35:27;;;;;;;;;19.75;19.00;;;;;-147.17;100.00;-15917.19;4994989;28;51167;-45
2022/11/05 00:37:53;;;;;;;;;28.75;27.75;;;;;-147.17;100.00;-15917.19;5011761;28;51353;-45
2022/11/05 00:40:18;;;;;;;;;19.25;15.25;;;;;-147.17;100.00;-15917.19;5010966;28;51209;-45
2022/11/05 00:45:30;;;;;;;;;17.50;15.25;;;;;-147.17;100.00;-15917.19;5012360;28;51188;-46
2022/11/05 00:50:39;;;;;;;;;15.25;14.00;;;;;-147.17;100.00;-15917.19;5010312;28;51180;-45
2022/11/05 00:53:06;;;;;;;;;27.50;24.50;;;;;-147.17;100.00;-15917.19;5013539;28;51323;-45
2022/11/05 00:55:36;;;;;;;;;17.50;14.50;;;;;-147.17;100.00;-15917.19;5007256;28;51115;-45
2022/11/05 00:58:04;;;;;;;;;20.00;19.00;;;;;-147.17;100.00;-15917.19;5008043;28;51155;-44
2022/11/05 01:00:32;;;;;;;;;22.00;19.75;;;;;-147.17;100.00;-15917.19;5009243;28;51873;-46
2022/11/05 01:03:03;;;;;;;;;18.75;15.75;;;;;-147.17;100.00;-15917.19;5012880;28;51123;-46
2022/11/05 01:05:30;;;;;;;;;21.00;19.00;;;;;-147.17;100.00;-15917.19;5009555;28;50953;-46
2022/11/05 01:07:56;;;;;;;;;36.25;29.00;;;;;-147.17;100.00;-15917.19;5010681;28;51254;-45
2022/11/05 01:10:22;;;;;;;;;15.25;14.25;;;;;-147.17;100.00;-15917.19;5004887;28;51792;-45
2022/11/05 01:12:48;;;;;;;;;15.00;12.50;;;;;-147.17;100.00;-15917.19;5010863;28;51290;-45
2022/11/05 01:15:14;;;;;;;;;14.75;13.00;;;;;-147.17;100.00;-15917.19;5011513;28;51554;-44
2022/11/05 01:17:40;;;;;;;;;15.00;14.00;;;;;-147.17;100.00;-15917.19;4995216;28;51136;-48
2022/11/05 01:20:05;;;;;;;;;18.00;16.75;;;;;-147.17;100.00;-15917.19;5009670;28;52253;-46
2022/11/05 01:22:31;;;;;;;;;15.25;14.00;;;;;-147.17;100.00;-15917.19;5013320;28;51123;-45
2022/11/05 01:24:56;;;;;;;;;19.00;16.75;;;;;-147.17;100.00;-15917.19;5010460;28;51112;-44
2022/11/05 01:27:21;;;;;;;;;13.50;12.75;;;;;-147.17;100.00;-15917.19;5010259;28;51195;-45
2022/11/05 01:29:47;;;;;;;;;12.50;12.00;;;;;-147.17;100.00;-15917.19;5012301;28;51297;-44
2022/11/05 01:32:12;;;;;;;;;11.75;10.00;;;;;-147.17;100.00;-15917.19;5012637;28;50996;-45
2022/11/05 01:34:37;;;;;;;;;11.75;11.75;;;;;-147.17;100.00;-15917.19;5005728;28;51299;-46
2022/11/05 01:37:03;;;;;;;;;13.00;11.50;;;;;-147.17;100.00;-15917.19;5010570;28;51055;-45
2022/11/05 01:39:28;;;;;;;;;9.00;9.00;;;;;-147.17;100.00;-15917.19;5012448;28;53028;-46
2022/11/05 01:41:53;;;;;;;;;16.50;10.50;;;;;-147.17;100.00;-15917.19;5012281;28;51054;-45
2022/11/05 01:44:54;;;;;;;;;15.75;15.00;;;;;-147.17;100.00;-15917.19;5011515;28;51034;-45
2022/11/05 01:47:26;;;;;;;;;14.00;13.25;;;;;-147.17;100.00;-15917.19;5003296;28;51335;-44
2022/11/05 01:49:52;;;;;;;;;14.00;13.00;;;;;-147.17;100.00;-15917.19;5011788;28;51798;-45
2022/11/05 01:52:19;;;;;;;;;16.00;14.50;;;;;-147.17;100.00;-15917.19;5010116;28;52629;-49
2022/11/05 01:54:46;;;;;;;;;13.00;13.00;;;;;-147.17;100.00;-15917.19;5008567;28;51242;-45
2022/11/05 01:57:12;;;;;;;;;16.00;15.00;;;;;-147.17;100.00;-15917.19;5009569;28;51091;-45
2022/11/05 01:59:49;;;;;;;;;13.00;12.25;;;;;-147.17;100.00;-15917.19;5008698;28;52197;-45
2022/11/05 02:02:15;;;;;;;;;13.75;13.50;;;;;-147.17;100.00;-15917.19;5011636;28;51054;-44
2022/11/05 02:04:46;;;;;;;;;14.25;14.00;;;;;-147.17;100.00;-15917.19;5010425;28;51170;-45
2022/11/05 02:07:12;;;;;;;;;9.00;8.50;;;;;-147.17;100.00;-15917.19;5012409;28;51196;-44
2022/11/05 02:10:01;;;;;;;;;10.75;10.75;;;;;-147.17;100.00;-15917.19;5009934;28;50961;-45
2022/11/05 02:12:28;;;;;;;;;14.25;13.25;;;;;-147.17;100.00;-15917.19;5010945;28;51202;-46
2022/11/05 02:14:54;;;;;;;;;12.50;12.50;;;;;-147.17;100.00;-15917.19;5010812;28;51150;-45
2022/11/05 02:18:05;;;;;;;;;13.75;11.00;;;;;-147.17;100.00;-15917.19;5011714;28;51390;-46
2022/11/05 02:20:37;;;;;;;;;10.50;10.50;;;;;-147.17;100.00;-15917.19;5005413;28;51790;-45
2022/11/05 02:23:35;;;;;;;;;15.00;11.25;;;;;-147.17;100.00;-15917.19;4992915;28;51040;-45
2022/11/05 02:26:06;;;;;;;;;13.50;13.50;;;;;-147.17;100.00;-15917.19;4996113;28;51411;-45
2022/11/05 02:28:44;;;;;;;;;12.25;11.50;;;;;-147.17;100.00;-15917.19;5011018;28;51158;-45
2022/11/05 02:31:15;;;;;;;;;10.00;10.00;;;;;-147.17;100.00;-15917.19;5011042;28;51040;-44
2022/11/05 02:33:55;;;;;;;;;14.00;13.25;;;;;-147.17;100.00;-15917.19;5006124;28;51169;-45
2022/11/05 02:36:36;;;;;;;;;11.25;11.25;;;;;-147.17;100.00;-15917.19;5008734;28;51131;-44
2022/11/05 02:39:32;;;;;;;;;14.50;12.25;;;;;-147.17;100.00;-15917.19;5010718;28;51389;-49
2022/11/05 02:42:26;;;;;;;;;12.25;9.75;;;;;-147.17;100.00;-15917.19;5010878;28;51360;-45
2022/11/05 02:45:21;;;;;;;;;8.25;8.00;;;;;-147.17;100.00;-15917.19;5010198;28;50979;-44
2022/11/05 02:47:52;;;;;;;;;9.00;8.75;;;;;-147.17;100.00;-15917.19;5005690;28;51140;-45
2022/11/05 02:50:34;;;;;;;;;7.75;7.00;;;;;-147.17;100.00;-15917.19;4993127;28;51081;-45
2022/11/05 02:53:44;;;;;;;;;11.25;10.75;;;;;-147.17;100.00;-15917.19;5010635;28;51221;-44
2022/11/05 02:56:19;;;;;;;;;9.50;9.00;;;;;-147.17;100.00;-15917.19;4969175;28;51428;-45
2022/11/05 02:58:45;;;;;;;;;10.00;10.00;;;;;-147.17;100.00;-15917.19;4966779;28;51224;-45
2022/11/05 03:01:11;;;;;;;;;9.25;9.00;;;;;-147.17;100.00;-15917.19;4992439;28;51159;-45
2022/11/05 03:03:42;;;;;;;;;8.50;8.00;;;;;-147.17;100.00;-15917.19;5008372;28;52262;-45
2022/11/05 03:06:26;;;;;;;;;7.75;7.50;;;;;-147.17;100.00;-15917.19;5011047;28;51179;-45
2022/11/05 03:09:03;;;;;;;;;9.75;8.00;;;;;-147.17;100.00;-15917.19;5006259;28;51368;-44
2022/11/05 03:11:33;;;;;;;;;11.00;9.00;;;;;-147.17;100.00;-15917.19;5011507;28;51106;-44
2022/11/05 03:14:07;;;;;;;;;8.75;7.50;;;;;-147.17;100.00;-15917.19;5008496;28;52229;-46
2022/11/05 03:16:51;;;;;;;;;10.00;8.75;;;;;-147.17;100.00;-15917.19;4996304;28;51094;-45
2022/11/05 03:19:21;;;;;;;;;8.00;8.00;;;;;-147.17;100.00;-15917.19;5009501;28;51212;-45
2022/11/05 03:21:55;;;;;;;;;7.50;6.75;;;;;-147.17;100.00;-15917.19;5010129;28;51378;-44
2022/11/05 03:24:26;;;;;;;;;8.50;8.50;;;;;-147.17;100.00;-15917.19;5008171;28;51220;-44
2022/11/05 03:26:59;;;;;;;;;10.00;8.25;;;;;-147.17;100.00;-15917.19;4992067;28;50996;-44
2022/11/05 03:29:36;;;;;;;;;10.25;8.50;;;;;-147.17;100.00;-15917.19;5006348;28;51171;-45
2022/11/05 03:32:03;;;;;;;;;9.50;8.00;;;;;-147.17;100.00;-15917.19;5003284;28;51258;-45
2022/11/05 03:34:37;;;;;;;;;7.50;7.00;;;;;-147.17;100.00;-15917.19;4991849;28;52639;-45
2022/11/05 03:37:05;;;;;;;;;8.25;7.25;;;;;-147.17;100.00;-15917.19;5010516;28;50999;-45
2022/11/05 03:39:42;;;;;;;;;7.75;7.75;;;;;-147.17;100.00;-15917.19;5010573;28;51008;-45
2022/11/05 03:42:11;;;;;;;;;7.00;7.00;;;;;-147.17;100.00;-15917.19;5009667;28;51147;-46
2022/11/05 03:44:41;;;;;;;;;9.25;9.00;;;;;-147.17;100.00;-15917.19;5009960;28;52806;-45
2022/11/05 03:47:13;;;;;;;;;7.75;7.00;;;;;-147.17;100.00;-15917.19;5009603;28;50988;-45
2022/11/05 03:49:49;;;;;;;;;8.00;7.25;;;;;-147.17;100.00;-15917.19;5009238;28;51054;-44
2022/11/05 03:52:18;;;;;;;;;3.75;3.25;;;;;-147.17;100.00;-15917.19;4989111;28;51313;-45
2022/11/05 03:54:45;;;;;;;;;3.75;3.00;;;;;-147.17;100.00;-15917.19;4989976;28;51667;-44
2022/11/05 03:57:22;;;;;;;;;4.25;4.00;;;;;-147.17;100.00;-15917.19;4988933;28;51311;-45
2022/11/05 03:59:49;;;;;;;;;8.25;7.75;;;;;-147.17;100.00;-15917.19;4989908;28;51381;-45
2022/11/05 04:02:18;;;;;;;;;7.00;7.00;;;;;-147.17;100.00;-15917.19;4986654;28;51195;-45
2022/11/05 04:04:43;;;;;;;;;10.25;9.00;;;;;-147.17;100.00;-15917.19;4989305;28;51887;-45
2022/11/05 04:15:22;;;;;;;;;7.75;7.00;;;;;-147.17;100.00;-15917.19;4989803;28;51005;-45
2022/11/05 04:17:47;;;;;;;;;6.75;6.75;;;;;-147.17;100.00;-15917.19;4989156;28;51135;-44
2022/11/05 04:25:46;;;;;;;;;8.25;8.25;;;;;-147.17;100.00;-15917.19;4993400;28;51761;-46
2022/11/05 04:28:12;;;;;;;;;7.00;7.00;;;;;-147.17;100.00;-15917.19;4990664;28;51226;-44
2022/11/05 04:30:38;;;;;;;;;7.50;6.75;;;;;-147.17;100.00;-15917.19;4991386;28;51185;-45
2022/11/05 04:33:08;;;;;;;;;7.00;7.00;;;;;-147.17;100.00;-15917.19;4992475;28;52579;-46
2022/11/05 04:35:39;;;;;;;;;8.00;7.75;;;;;-147.17;100.00;-15917.19;4993756;28;51137;-45
2022/11/05 04:38:07;;;;;;;;;7.25;5.50;;;;;-147.17;100.00;-15917.19;4989516;28;51146;-45
2022/11/05 04:40:32;;;;;;;;;4.50;4.50;;;;;-147.17;100.00;-15917.19;4994266;28;51271;-45
2022/11/05 04:42:58;;;;;;;;;7.00;7.00;;;;;-147.17;100.00;-15917.19;4991867;28;51315;-45
2022/11/05 04:45:25;;;;;;;;;3.25;3.25;;;;;-147.17;100.00;-15917.19;4991142;28;53191;-45
2022/11/05 04:47:51;;;;;;;;;8.00;6.50;;;;;-147.17;100.00;-15917.19;4992995;28;51048;-45
2022/11/05 04:50:16;;;;;;;;;8.75;7.50;;;;;-147.17;100.00;-15917.19;4992093;28;51231;-46
2022/11/05 04:52:42;;;;;;;;;7.00;7.00;;;;;-147.17;100.00;-15917.19;4989426;28;51318;-45
2022/11/05 04:55:08;;;;;;;;;8.00;7.75;;;;;-147.17;100.00;-15917.19;4989692;28;51987;-45
2022/11/05 04:57:33;;;;;;;;;8.25;7.00;;;;;-147.17;100.00;-15917.19;4990088;28;51044;-44
2022/11/05 04:59:59;;;;;;;;;4.00;4.00;;;;;-147.17;100.00;-15917.19;4993297;28;50922;-45
2022/11/05 05:02:24;;;;;;;;;7.00;7.00;;;;;-147.17;100.00;-15917.19;4994773;28;51816;-44
2022/11/05 05:04:50;;;;;;;;;3.75;3.75;;;;;-147.17;100.00;-15917.19;4992764;28;56024;-45
2022/11/05 05:07:15;;;;;;;;;8.75;8.00;;;;;-147.17;100.00;-15917.19;4992089;28;51261;-45
2022/11/05 05:09:40;;;;;;;;;7.00;5.25;;;;;-147.17;100.00;-15917.19;4993588;28;51319;-44
2022/11/05 05:12:06;;;;;;;;;10.00;9.00;;;;;-147.17;100.00;-15917.19;4991207;28;51218;-44
2022/11/05 05:14:32;;;;;;;;;7.50;7.00;;;;;-147.17;100.00;-15917.19;4989755;28;53931;-44
2022/11/05 05:16:57;;;;;;;;;7.00;5.25;;;;;-147.17;100.00;-15917.19;4991440;28;51136;-44
2022/11/05 05:19:24;;;;;;;;;7.50;5.25;;;;;-147.17;100.00;-15917.19;4993441;28;51015;-45
2022/11/05 05:21:49;;;;;;;;;4.00;4.00;;;;;-147.17;100.00;-15917.19;4989671;28;51147;-45
2022/11/05 05:24:17;;;;;;;;;5.25;5.00;;;;;-147.17;100.00;-15917.19;4991601;28;51869;-44
2022/11/05 05:26:47;;;;;;;;;6.50;4.50;;;;;-147.17;100.00;-15917.19;4990217;28;50918;-44
2022/11/05 05:29:13;;;;;;;;;5.50;5.25;;;;;-147.17;100.00;-15917.19;4988698;28;51111;-44
2022/11/05 05:31:39;;;;;;;;;3.00;3.00;;;;;-147.17;100.00;-15917.19;4986663;28;51338;-45
2022/11/05 05:34:05;;;;;;;;;7.00;7.00;;;;;-147.17;100.00;-15917.19;4990758;28;52728;-51
2022/11/05 05:36:31;;;;;;;;;7.00;5.25;;;;;-147.17;100.00;-15917.19;4993133;28;51187;-45
2022/11/05 05:38:56;;;;;;;;;7.00;7.00;;;;;-147.17;100.00;-15917.19;4992204;28;51107;-45
2022/11/05 05:41:21;;;;;;;;;9.25;9.00;;;;;-147.17;100.00;-15917.19;4992996;28;51142;-45
2022/11/05 05:43:47;;;;;;;;;7.00;7.00;;;;;-147.17;100.00;-15917.19;4991827;28;52292;-45
2022/11/05 05:46:14;;;;;;;;;4.25;4.25;;;;;-147.17;100.00;-15917.19;4989642;28;51038;-44
2022/11/05 05:48:41;;;;;;;;;3.50;3.00;;;;;-147.17;100.00;-15917.19;4992304;28;51035;-45
2022/11/05 05:51:09;;;;;;;;;7.50;6.00;;;;;-147.17;100.00;-15917.19;4992797;28;51274;-45
2022/11/05 05:53:36;;;;;;;;;8.00;7.25;;;;;-147.17;100.00;-15917.19;5010308;28;51121;-46
2022/11/05 05:56:01;;;;;;;;;7.75;7.00;;;;;-147.17;100.00;-15917.19;5011395;28;51319;-45
2022/11/05 05:58:34;;;;;;;;;6.75;6.75;;;;;-147.17;100.00;-15917.19;4994141;28;51071;-46
2022/11/05 06:01:02;;;;;;;;;8.75;8.00;;;;;-147.17;100.00;-15917.19;5010936;28;51313;-45
2022/11/05 06:03:28;;;;;;;;;9.00;9.00;;;;;-147.17;100.00;-15917.19;5002491;28;52125;-45
2022/11/05 06:05:59;;;;;;;;;5.25;4.75;;;;;-147.17;100.00;-15917.19;5007483;28;51060;-45
2022/11/05 06:08:24;;;;;;;;;7.00;7.00;;;;;-147.17;100.00;-15917.19;4994494;28;51143;-45
2022/11/05 06:10:50;;;;;;;;;8.25;7.25;;;;;-147.17;100.00;-15917.19;5010502;28;51353;-45
2022/11/05 06:13:15;;;;;;;;;0.25;0.00;;;;;-147.17;100.00;-15917.19;5010719;28;51772;-44
2022/11/05 06:15:41;;;;;;;;;7.50;7.50;;;;;-147.17;100.00;-15917.19;5011496;28;51055;-45
2022/11/05 06:18:06;;;;;;;;;7.25;6.00;;;;;-147.17;100.00;-15917.19;5010397;28;50981;-45
2022/11/05 06:20:31;;;;;;;;;8.00;8.00;;;;;-147.17;100.00;-15917.19;5006592;28;51402;-45
2022/11/05 06:22:57;;;;;;;;;7.50;7.50;;;;;-147.17;100.00;-15917.19;5011080;28;51053;-46
2022/11/05 06:25:23;;;;;;;;;10.00;8.00;;;;;-147.17;100.00;-15917.19;5011654;28;50942;-44
2022/11/05 06:27:48;;;;;;;;;7.00;7.00;;;;;-147.17;100.00;-15917.19;5010946;28;51064;-44
2022/11/05 06:30:14;;;;;;;;;8.25;7.00;;;;;-147.17;100.00;-15917.19;4993636;28;51415;-44
2022/11/05 06:32:39;;;;;;;;;8.00;7.75;;;;;-147.17;100.00;-15917.19;5011168;28;51746;-45
2022/11/05 06:35:05;;;;;;;;;9.00;7.25;;;;;-147.17;100.00;-15917.19;5007757;28;51467;-45
2022/11/05 06:37:32;;;;;;;;;9.50;9.50;;;;;-147.17;100.00;-15917.19;4990745;28;51233;-45
2022/11/05 06:39:58;;;;;;;;;7.00;7.00;;;;;-147.17;100.00;-15917.19;5010928;28;51064;-44
2022/11/05 06:42:24;;;;;;;;;7.00;7.00;;;;;-147.17;100.00;-15917.19;5009182;28;51280;-44
2022/11/05 06:44:49;;;;;;;;;6.00;6.00;;;;;-147.17;100.00;-15917.19;5010516;28;51079;-45
2022/11/05 06:47:14;;;;;;;;;6.50;4.00;;;;;-147.17;100.00;-15917.19;5010526;28;51171;-45
2022/11/05 06:49:40;;;;;;;;;6.50;6.00;;;;;-147.17;100.00;-15917.19;5006906;28;51300;-45
2022/11/05 06:52:05;;;;;;;;;6.50;6.25;;;;;-147.17;100.00;-15917.19;5009891;28;51266;-45
2022/11/05 06:54:30;;;;;;;;;7.25;7.00;;;;;-147.17;100.00;-15917.19;4998008;28;51257;-44
2022/11/05 06:56:56;;;;;;;;;7.00;6.50;;;;;-147.17;100.00;-15917.19;5010547;28;50915;-44
2022/11/05 06:59:21;;;;;;;;;4.75;4.00;;;;;-147.17;100.00;-15917.19;5010005;28;50839;-44
2022/11/05 07:01:46;;;;;;;;;11.25;10.00;;;;;-147.17;100.00;-15917.19;4986877;28;52744;-45
2022/11/05 07:04:12;;;;;;;;;7.50;7.50;;;;;-147.17;100.00;-15917.19;5007125;28;51772;-45
2022/11/05 07:06:37;;;;;;;;;8.75;8.50;;;;;-147.17;100.00;-15917.19;5010679;28;51072;-45
2022/11/05 07:09:03;;;;;;;;;7.75;7.00;;;;;-147.17;100.00;-15917.19;5011198;28;50952;-45
2022/11/05 07:11:28;;;;;;;;;7.00;5.25;;;;;-147.17;100.00;-15917.19;5010279;28;51065;-44
2022/11/05 07:13:53;;;;;;;;;4.25;4.25;;;;;-147.17;100.00;-15917.19;5009739;28;50973;-45
2022/11/05 07:16:19;;;;;;;;;6.75;6.75;;;;;-147.17;100.00;-15917.19;5011515;28;51118;-46
2022/11/05 07:18:44;;;;;;;;;3.75;3.75;;;;;-147.17;100.00;-15917.19;5010327;28;51100;-45
2022/11/05 07:21:09;;;;;;;;;8.25;7.75;;;;;-147.17;100.00;-15917.19;5007970;28;50996;-45
2022/11/05 07:23:35;;;;;;;;;3.75;3.75;;;;;-147.17;100.00;-15917.19;5002440;28;51037;-45
2022/11/05 07:26:00;;;;;;;;;4.00;4.00;;;;;-147.17;100.00;-15917.19;5011497;28;51322;-45
2022/11/05 07:28:25;;;;;;;;;3.25;3.00;;;;;-147.17;100.00;-15917.19;5011242;28;51394;-45
2022/11/05 07:30:51;;;;;;;;;6.00;5.00;;;;;-147.17;100.00;-15917.19;5006634;28;51168;-45
2022/11/05 07:33:16;;;;;;;;;4.00;3.50;;;;;-147.17;100.00;-15917.19;5010036;28;51012;-45
2022/11/05 07:35:41;;;;;;;;;5.00;4.50;;;;;-147.17;100.00;-15917.19;5009706;28;51132;-45
2022/11/05 07:38:07;;;;;;;;;3.67;3.67;;;;;-147.17;100.00;-15917.19;5009375;28;51472;-45
2022/11/05 07:40:32;;;;;;;;;8.25;7.00;;;;;-147.17;100.00;-15917.19;5009948;28;51128;-44
2022/11/05 07:43:00;;;;;;;;;9.00;9.00;;;;;-147.17;100.00;-15917.19;5008053;28;51020;-44
2022/11/05 07:45:26;;;;;;;;;9.00;9.00;;;;;-147.17;100.00;-15917.19;4987982;28;51132;-45
2022/11/05 07:47:57;;;;;;;;;9.75;7.75;;;;;-147.17;100.00;-15917.19;5001692;28;50943;-44
2022/11/05 07:50:24;;;;;;;;;8.00;7.00;;;;;-147.17;100.00;-15917.19;5006474;28;51853;-45
2022/11/05 07:52:50;;;;;;;;;9.75;8.25;;;;;-147.17;100.00;-15917.19;5009405;28;51142;-45
2022/11/05 07:55:18;;;;;;;;;14.75;12.25;;;;;-147.17;100.00;-15917.19;5008711;28;50912;-44
2022/11/05 07:57:48;;;;;;;;;8.50;8.00;;;;;-147.17;100.00;-15917.19;5013916;28;51064;-45
2022/11/05 08:00:19;;;;;;;;;9.75;9.00;;;;;-147.17;100.00;-15917.19;5013409;28;53196;-44
2022/11/05 08:03:15;;;;;;;;;10.50;10.25;;;;;-147.17;100.00;-15917.19;5013744;28;51201;-45
2022/11/05 08:05:43;;;;;;;;;7.25;7.25;;;;;-147.17;100.00;-15917.19;5013619;28;51151;-44
2022/11/05 08:08:10;;;;;;;;;15.25;13.25;;;;;-147.17;100.00;-15917.19;5005387;28;51151;-45
2022/11/05 08:10:37;;;;;;;;;8.00;8.00;;;;;-147.17;100.00;-15917.19;5013515;28;52606;-45
2022/11/05 08:13:03;;;;;;;;;9.25;9.25;;;;;-147.17;100.00;-15917.19;5007949;28;51132;-45
2022/11/05 08:15:29;;;;;;;;;10.75;9.25;;;;;-147.17;100.00;-15917.19;5009605;28;51016;-45
2022/11/05 08:17:58;;;;;;;;;12.50;11.00;;;;;-147.17;100.00;-15917.19;5014108;28;51236;-45
2022/11/05 08:20:25;;;;;;;;;9.00;9.00;;;;;-147.17;100.00;-15917.19;5006770;28;51159;-45
2022/11/05 08:22:50;;;;;;;;;11.00;10.00;;;;;-147.17;100.00;-15917.19;5012286;28;51103;-47
2022/11/05 08:25:16;;;;;;;;;8.67;8.33;;;;;-147.17;100.00;-15917.19;5012435;28;51201;-46
2022/11/05 08:27:41;;;;;;;;;10.00;8.33;;;;;-147.17;100.00;-15917.19;5008200;28;51329;-45
2022/11/05 08:30:08;;;;;;;;;8.00;8.00;;;;;-147.17;100.00;-15917.19;5006644;28;51630;-45
2022/11/05 08:32:34;;;;;;;;;11.33;10.00;;;;;-147.17;100.00;-15917.19;5006300;28;51223;-50
2022/11/05 08:34:59;;;;;;;;;5.67;5.00;;;;;-147.17;100.00;-15917.19;5008391;28;51420;-45
2022/11/05 08:37:24;;;;;;;;;10.67;10.67;;;;;-147.17;100.00;-15917.19;5009292;28;51405;-46
2022/11/05 08:39:50;;;;;;;;;11.00;10.00;;;;;-147.17;100.00;-15917.19;5008946;28;51127;-46
2022/11/05 08:42:15;;;;;;;;;7.50;7.50;;;;;-147.17;100.00;-15917.19;5006752;28;51311;-46
2022/11/05 08:44:41;;;;;;;;;7.00;6.50;;;;;-147.17;100.00;-15917.19;5015069;28;51737;-47
2022/11/05 08:47:06;;;;;;;;;13.75;13.50;;;;;-147.17;100.00;-15917.19;5008163;28;51238;-45
2022/11/05 08:49:31;;;;;;;;;13.50;12.25;;;;;-147.17;100.00;-15917.19;5010476;28;51190;-46
2022/11/05 08:51:57;;;;;;;;;14.00;14.00;;;;;-147.17;100.00;-15917.19;5010157;28;52538;-46
2022/11/05 08:54:22;;;;;;;;;5.67;5.33;;;;;-147.17;100.00;-15917.19;5012532;28;51608;-46
2022/11/05 08:56:49;;;;;;;;;4.00;4.00;;;;;-147.17;100.00;-15917.19;5011355;28;51150;-45
2022/11/05 08:59:14;;;;;;;;;9.67;9.00;;;;;-147.17;100.00;-15917.19;5009152;28;51221;-45
2022/11/05 09:01:40;;;;;;;;;10.33;9.67;;;;;-147.17;100.00;-15917.19;5011067;28;51184;-45
2022/11/05 09:04:06;;;;;;;;;6.67;6.67;;;;;-147.17;100.00;-15917.19;5011149;28;51118;-46
2022/11/05 09:06:31;;;;;;;;;12.33;10.00;;;;;-147.17;100.00;-15917.19;5006582;28;51152;-46
2022/11/05 09:08:56;;;;;;;;;8.00;7.00;;;;;-147.17;100.00;-15917.19;5013272;28;51712;-46
2022/11/05 09:11:22;;;;;;;;;7.00;7.00;;;;;-147.17;100.00;-15917.19;5010713;28;51364;-47
2022/11/05 09:13:48;;;;;;;;;5.00;5.00;;;;;-147.17;100.00;-15917.19;5012977;28;50972;-46
2022/11/05 09:16:19;;;;;;;;;7.67;7.00;;;;;-147.17;100.00;-15917.19;5005468;28;51457;-46
2022/11/05 09:18:45;;;;;;;;;6.00;5.00;;;;;-147.17;100.00;-15917.19;5008151;28;51084;-46
2022/11/05 09:21:10;;;;;;;;;10.00;7.67;;;;;-147.17;100.00;-15917.19;5011176;28;51230;-47
2022/11/05 09:23:36;;;;;;;;;7.00;6.00;;;;;-147.17;100.00;-15917.19;5013767;28;51046;-46
2022/11/05 09:26:01;;;;;;;;;11.00;10.33;;;;;-147.17;100.00;-15917.19;5007583;28;51043;-46
2022/11/05 09:28:27;;;;;;;;;7.67;7.67;;;;;-147.17;100.00;-15917.19;5010477;28;63050;-47
2022/11/05 09:30:52;;;;;;;;;10.33;8.00;;;;;-147.17;100.00;-15917.19;5011220;28;51131;-47
2022/11/05 09:33:21;;;;;;;;;7.00;7.00;;;;;-147.17;100.00;-15917.19;5011418;28;51258;-48
2022/11/05 09:35:46;;;;;;;;;4.67;4.67;;;;;-147.17;100.00;-15917.19;5002126;28;51169;-49
2022/11/05 09:38:12;;;;;;;;;8.33;7.67;;;;;-147.17;100.00;-15917.19;4990578;28;53261;-47
2022/11/05 09:40:54;;;;;;;;;9.00;8.00;;;;;-147.17;100.00;-15917.19;5007953;28;51581;-48
2022/11/05 09:43:23;;;;;;;;;11.33;11.33;;;;;-147.17;100.00;-15917.19;5008756;28;51257;-47
2022/11/05 09:45:52;;;;;;;;;8.00;7.33;;;;;-147.17;100.00;-15917.19;5007684;28;51096;-48
2022/11/05 09:48:21;;;;;;;;;7.00;7.00;;;;;-147.17;100.00;-15917.19;5011499;28;51471;-46
2022/11/05 09:50:49;;;;;;;;;10.67;9.67;;;;;-147.17;100.00;-15917.19;5011998;28;51020;-47
2022/11/05 09:53:17;;;;;;;;;16.00;14.50;;;;;-147.17;100.00;-15917.19;5009505;28;51235;-48
2022/11/05 09:55:47;;;;;;;;;8.75;7.75;;;;;-147.17;100.00;-15917.19;5006503;28;52448;-47
2022/11/05 09:58:19;;;;;;;;;8.67;8.00;;;;;-147.17;100.00;-15917.19;5011685;28;51873;-49
2022/11/05 10:00:51;;;;;;;;;10.00;9.33;;;;;-147.17;100.00;-15917.19;5010663;28;51183;-47
2022/11/05 10:03:21;;;;;;;;;12.00;12.00;;;;;-147.17;100.00;-15917.19;5011860;28;51134;-47
2022/11/05 10:05:49;;;;;;;;;11.00;11.00;;;;;-147.17;100.00;-15917.19;5011727;28;51072;-48
2022/11/05 10:08:26;;;;;;;;;4.00;2.33;;;;;-147.17;100.00;-15917.19;4999645;28;51874;-47
2022/11/05 10:10:51;;;;;;;;;11.00;10.00;;;;;-147.17;100.00;-15917.19;5008728;28;51656;-47
2022/11/05 10:13:43;;;;;;;;;9.25;8.25;;;;;-147.17;100.00;-15917.19;4994254;28;51029;-46
2022/11/05 10:16:44;;;;;;;;;4.00;4.00;;;;;-147.17;100.00;-15917.19;5007588;28;51156;-49
2022/11/05 10:19:20;;;;;;;;;3.00;2.67;;;;;-147.17;100.00;-15917.19;5007612;28;52088;-49
2022/11/05 10:21:46;;;;;;;;;1.33;1.33;;;;;-147.17;100.00;-15917.19;5009262;28;51174;-46
2022/11/05 10:24:17;;;;;;;;;2.00;2.00;;;;;-147.17;100.00;-15917.19;5012602;28;51042;-47
2022/11/05 10:26:46;;;;;;;;;2.67;2.67;;;;;-147.17;100.00;-15917.19;5003271;28;51210;-47
2022/11/05 10:29:21;;;;;;;;;4.67;4.67;;;;;-147.17;100.00;-15917.19;5008963;28;51033;-48
2022/11/05 10:31:47;;;;;;;;;5.00;5.00;;;;;-147.17;100.00;-15917.19;5007400;28;51100;-47
2022/11/05 10:34:16;;;;;;;;;4.00;4.00;;;;;-147.17;100.00;-15917.19;5013847;28;51056;-47
2022/11/05 10:36:42;;;;;;;;;5.00;4.33;;;;;-147.17;100.00;-15917.19;5016514;28;51202;-47
2022/11/05 10:39:13;;;;;;;;;3.00;3.00;;;;;-147.17;100.00;-15917.19;5009884;28;52220;-47
2022/11/05 10:41:48;;;;;;;;;3.67;3.00;;;;;-147.17;100.00;-15917.19;5009848;28;51357;-49
2022/11/05 10:44:38;;;;;;;;;3.33;3.33;;;;;-147.17;100.00;-15917.19;4999657;28;51156;-46
2022/11/05 10:47:13;;;;;;;;;6.00;4.00;;;;;-147.17;100.00;-15917.19;5005486;28;51040;-47
2022/11/05 10:49:57;;;;;;;;;8.00;6.00;;;;;-147.17;100.00;-15917.19;4994215;28;51240;-48
2022/11/05 10:52:30;;;;;;;;;7.33;6.67;;;;;-147.17;100.00;-15917.19;5008616;28;51064;-47
2022/11/05 10:55:00;;;;;;;;;7.00;5.33;;;;;-147.17;100.00;-15917.19;5005881;28;51159;-47
2022/11/05 10:57:37;;;;;;;;;6.00;5.33;;;;;-147.17;100.00;-15917.19;5008422;28;51102;-48
2022/11/05 11:00:15;;;;;;;;;4.00;4.00;;;;;-147.17;100.00;-15917.19;5008820;28;51828;-48
2022/11/05 11:02:42;;;;;;;;;3.00;3.00;;;;;-147.17;100.00;-15917.19;5010326;28;50970;-48
2022/11/05 11:05:16;;;;;;;;;4.00;3.33;;;;;-147.17;100.00;-15917.19;5011482;28;50957;-48
2022/11/05 11:07:42;;;;;;;;;8.33;7.33;;;;;-147.17;100.00;-15917.19;4988751;28;51140;-47
2022/11/05 11:10:20;;;;;;;;;12.00;11.00;;;;;-147.17;100.00;-15917.19;4976256;28;52739;-48
2022/11/05 11:12:47;;;;;;;;;6.00;4.33;;;;;-147.17;100.00;-15917.19;5011418;28;50947;-48
2022/11/05 11:15:14;;;;;;;;;5.00;4.00;;;;;-147.17;100.00;-15917.19;5009289;28;51087;-47
2022/11/05 11:17:40;;;;;;;;;6.33;5.00;;;;;-147.17;100.00;-15917.19;5011652;28;51392;-48
2022/11/05 11:20:23;;;;;;;;;5.67;5.00;;;;;-147.17;100.00;-15917.19;5007419;28;51906;-48
2022/11/05 11:23:14;;;;;;;;;5.33;4.00;;;;;-147.17;100.00;-15917.19;5011174;28;51101;-48
2022/11/05 11:25:59;;;;;;;;;6.33;6.33;;;;;-147.17;100.00;-15917.19;5011689;28;51093;-47
2022/11/05 11:28:31;;;;;;;;;6.33;5.00;;;;;-147.17;100.00;-15917.19;5011245;28;51136;-48
2022/11/05 11:31:05;;;;;;;;;6.67;6.00;;;;;-147.17;100.00;-15917.19;5022082;28;51832;-48
2022/11/05 11:33:33;;;;;;;;;8.00;7.00;;;;;-147.17;100.00;-15917.19;5009834;28;51031;-47
2022/11/05 11:35:59;;;;;;;;;8.00;7.00;;;;;-147.17;100.00;-15917.19;5011791;28;51057;-46
2022/11/05 11:38:29;;;;;;;;;5.67;4.00;;;;;-147.17;100.00;-15917.19;5011532;28;51235;-48
2022/11/05 11:41:14;;;;;;;;;6.33;4.00;;;;;-147.17;100.00;-15917.19;4993417;28;53752;-47
2022/11/05 11:43:42;;;;;;;;;5.00;5.00;;;;;-147.17;100.00;-15917.19;4991496;28;51252;-48